sensor_id;sensor_type;location;lat;lon;timestamp;P1;durP1;ratioP1;P2;durP2;ratioP2
48014;SDS011;33780;51.034;7.120;2023-02-11T00:00:10;18.73;;;6.90;;
48014;SDS011;33780;51.034;7.120;2023-02-11T00:08:19;15.93;;;6.10;;
48014;SDS011;33780;51.034;7.120;2023-02-11T00:46:30;15.45;;;6.03;;
48014;SDS011;33780;51.034;7.120;2023-02-11T00:49:02;13.05;;;6.50;;
48014;SDS011;33780;51.034;7.120;2023-02-11T00:54:06;11.57;;;5.20;;
48014;SDS011;33780;51.034;7.120;2023-02-11T00:56:32;16.73;;;6.30;;
48014;SDS011;33780;51.034;7.120;2023-02-11T00:58:58;11.00;;;5.18;;
48014;SDS011;33780;51.034;7.120;2023-02-11T01:01:23;13.85;;;5.22;;
48014;SDS011;33780;51.034;7.120;2023-02-11T01:03:49;13.15;;;5.28;;
48014;SDS011;33780;51.034;7.120;2023-02-11T01:06:14;15.10;;;5.63;;
48014;SDS011;33780;51.034;7.120;2023-02-11T01:08:40;15.35;;;5.75;;
48014;SDS011;33780;51.034;7.120;2023-02-11T01:11:07;13.43;;;5.63;;
48014;SDS011;33780;51.034;7.120;2023-02-11T01:13:36;13.70;;;5.53;;
48014;SDS011;33780;51.034;7.120;2023-02-11T01:16:02;13.65;;;5.32;;
48014;SDS011;33780;51.034;7.120;2023-02-11T01:18:30;13.75;;;5.28;;
48014;SDS011;33780;51.034;7.120;2023-02-11T01:20:55;10.68;;;4.88;;
48014;SDS011;33780;51.034;7.120;2023-02-11T01:23:20;14.93;;;5.10;;
48014;SDS011;33780;51.034;7.120;2023-02-11T01:25:46;13.52;;;5.55;;
48014;SDS011;33780;51.034;7.120;2023-02-11T01:28:19;15.73;;;6.55;;
48014;SDS011;33780;51.034;7.120;2023-02-11T01:30:46;15.50;;;5.47;;
48014;SDS011;33780;51.034;7.120;2023-02-11T01:33:11;12.18;;;5.72;;
48014;SDS011;33780;51.034;7.120;2023-02-11T01:35:37;11.32;;;5.20;;
48014;SDS011;33780;51.034;7.120;2023-02-11T01:38:03;15.00;;;5.65;;
48014;SDS011;33780;51.034;7.120;2023-02-11T01:40:29;11.43;;;5.20;;
48014;SDS011;33780;51.034;7.120;2023-02-11T01:42:55;14.48;;;5.68;;
48014;SDS011;33780;51.034;7.120;2023-02-11T01:45:51;13.57;;;5.90;;
48014;SDS011;33780;51.034;7.120;2023-02-11T01:48:09;13.70;;;6.25;;
48014;SDS011;33780;51.034;7.120;2023-02-11T01:50:39;10.93;;;5.70;;
48014;SDS011;33780;51.034;7.120;2023-02-11T01:53:07;14.43;;;5.20;;
48014;SDS011;33780;51.034;7.120;2023-02-11T01:55:53;15.32;;;5.75;;
48014;SDS011;33780;51.034;7.120;2023-02-11T01:58:38;13.02;;;5.50;;
48014;SDS011;33780;51.034;7.120;2023-02-11T02:01:07;12.00;;;5.45;;
48014;SDS011;33780;51.034;7.120;2023-02-11T02:03:37;12.13;;;5.03;;
48014;SDS011;33780;51.034;7.120;2023-02-11T02:06:07;11.07;;;5.20;;
48014;SDS011;33780;51.034;7.120;2023-02-11T02:08:43;14.07;;;6.18;;
48014;SDS011;33780;51.034;7.120;2023-02-11T02:11:16;15.82;;;6.13;;
48014;SDS011;33780;51.034;7.120;2023-02-11T02:13:41;12.90;;;5.78;;
48014;SDS011;33780;51.034;7.120;2023-02-11T02:16:09;12.20;;;5.43;;
48014;SDS011;33780;51.034;7.120;2023-02-11T02:30:30;13.40;;;6.03;;
48014;SDS011;33780;51.034;7.120;2023-02-11T02:33:31;13.75;;;5.18;;
48014;SDS011;33780;51.034;7.120;2023-02-11T02:41:53;13.10;;;5.57;;
48014;SDS011;33780;51.034;7.120;2023-02-11T02:44:20;14.05;;;5.90;;
48014;SDS011;33780;51.034;7.120;2023-02-11T02:46:45;13.45;;;6.65;;
48014;SDS011;33780;51.034;7.120;2023-02-11T02:49:11;15.43;;;6.00;;
48014;SDS011;33780;51.034;7.120;2023-02-11T03:02:44;15.82;;;6.32;;
48014;SDS011;33780;51.034;7.120;2023-02-11T03:08:11;14.75;;;6.25;;
48014;SDS011;33780;51.034;7.120;2023-02-11T03:10:48;15.77;;;6.40;;
48014;SDS011;33780;51.034;7.120;2023-02-11T03:13:16;13.10;;;5.72;;
48014;SDS011;33780;51.034;7.120;2023-02-11T03:15:47;16.25;;;6.47;;
48014;SDS011;33780;51.034;7.120;2023-02-11T03:18:15;15.77;;;6.90;;
48014;SDS011;33780;51.034;7.120;2023-02-11T03:20:43;15.25;;;6.20;;
48014;SDS011;33780;51.034;7.120;2023-02-11T03:25:39;11.87;;;6.00;;
48014;SDS011;33780;51.034;7.120;2023-02-11T03:30:42;17.63;;;6.35;;
48014;SDS011;33780;51.034;7.120;2023-02-11T03:33:21;17.23;;;6.90;;
48014;SDS011;33780;51.034;7.120;2023-02-11T03:35:57;16.10;;;6.57;;
48014;SDS011;33780;51.034;7.120;2023-02-11T03:38:28;15.00;;;6.22;;
48014;SDS011;33780;51.034;7.120;2023-02-11T03:40:57;16.33;;;6.32;;
48014;SDS011;33780;51.034;7.120;2023-02-11T03:43:35;14.82;;;6.20;;
48014;SDS011;33780;51.034;7.120;2023-02-11T03:46:05;15.73;;;6.65;;
48014;SDS011;33780;51.034;7.120;2023-02-11T03:48:33;13.93;;;6.32;;
48014;SDS011;33780;51.034;7.120;2023-02-11T03:51:03;13.05;;;5.88;;
48014;SDS011;33780;51.034;7.120;2023-02-11T03:53:31;12.07;;;5.63;;
48014;SDS011;33780;51.034;7.120;2023-02-11T03:55:57;13.52;;;5.45;;
48014;SDS011;33780;51.034;7.120;2023-02-11T03:58:26;16.27;;;5.75;;
48014;SDS011;33780;51.034;7.120;2023-02-11T04:00:51;15.20;;;5.95;;
48014;SDS011;33780;51.034;7.120;2023-02-11T04:03:17;13.52;;;5.85;;
48014;SDS011;33780;51.034;7.120;2023-02-11T04:05:43;14.18;;;6.07;;
48014;SDS011;33780;51.034;7.120;2023-02-11T04:08:08;14.75;;;6.30;;
48014;SDS011;33780;51.034;7.120;2023-02-11T04:10:33;12.80;;;5.78;;
48014;SDS011;33780;51.034;7.120;2023-02-11T04:12:59;13.77;;;6.55;;
48014;SDS011;33780;51.034;7.120;2023-02-11T04:15:24;13.25;;;5.95;;
48014;SDS011;33780;51.034;7.120;2023-02-11T04:17:49;19.58;;;6.47;;
48014;SDS011;33780;51.034;7.120;2023-02-11T04:20:15;15.55;;;7.43;;
48014;SDS011;33780;51.034;7.120;2023-02-11T04:22:40;15.27;;;6.18;;
48014;SDS011;33780;51.034;7.120;2023-02-11T04:25:06;17.67;;;6.55;;
48014;SDS011;33780;51.034;7.120;2023-02-11T04:27:32;15.82;;;7.18;;
48014;SDS011;33780;51.034;7.120;2023-02-11T04:29:57;15.55;;;6.63;;
48014;SDS011;33780;51.034;7.120;2023-02-11T04:32:22;16.10;;;6.53;;
48014;SDS011;33780;51.034;7.120;2023-02-11T04:34:48;18.25;;;6.18;;
48014;SDS011;33780;51.034;7.120;2023-02-11T04:37:13;16.67;;;6.38;;
48014;SDS011;33780;51.034;7.120;2023-02-11T04:39:38;18.17;;;6.57;;
48014;SDS011;33780;51.034;7.120;2023-02-11T04:42:04;16.20;;;7.30;;
48014;SDS011;33780;51.034;7.120;2023-02-11T04:44:29;15.90;;;6.55;;
48014;SDS011;33780;51.034;7.120;2023-02-11T04:46:55;16.88;;;7.13;;
48014;SDS011;33780;51.034;7.120;2023-02-11T04:49:20;15.80;;;7.43;;
48014;SDS011;33780;51.034;7.120;2023-02-11T04:51:46;18.80;;;7.82;;
48014;SDS011;33780;51.034;7.120;2023-02-11T04:54:11;17.73;;;7.22;;
48014;SDS011;33780;51.034;7.120;2023-02-11T04:56:37;20.52;;;7.80;;
48014;SDS011;33780;51.034;7.120;2023-02-11T04:59:02;20.35;;;6.50;;
48014;SDS011;33780;51.034;7.120;2023-02-11T05:01:28;19.13;;;7.40;;
48014;SDS011;33780;51.034;7.120;2023-02-11T05:03:54;17.85;;;6.97;;
48014;SDS011;33780;51.034;7.120;2023-02-11T05:06:19;16.77;;;7.07;;
48014;SDS011;33780;51.034;7.120;2023-02-11T05:08:45;17.58;;;6.75;;
48014;SDS011;33780;51.034;7.120;2023-02-11T05:11:14;17.75;;;7.25;;
48014;SDS011;33780;51.034;7.120;2023-02-11T05:13:41;15.70;;;7.53;;
48014;SDS011;33780;51.034;7.120;2023-02-11T05:16:07;20.30;;;6.63;;
48014;SDS011;33780;51.034;7.120;2023-02-11T05:18:33;18.60;;;6.90;;
48014;SDS011;33780;51.034;7.120;2023-02-11T05:21:04;19.45;;;7.07;;
48014;SDS011;33780;51.034;7.120;2023-02-11T05:23:30;21.45;;;8.32;;
48014;SDS011;33780;51.034;7.120;2023-02-11T05:25:55;22.00;;;8.20;;
48014;SDS011;33780;51.034;7.120;2023-02-11T05:28:20;16.27;;;7.45;;
48014;SDS011;33780;51.034;7.120;2023-02-11T05:30:46;16.58;;;7.03;;
48014;SDS011;33780;51.034;7.120;2023-02-11T05:33:11;17.90;;;7.93;;
48014;SDS011;33780;51.034;7.120;2023-02-11T05:35:36;17.60;;;6.75;;
48014;SDS011;33780;51.034;7.120;2023-02-11T05:38:01;14.93;;;6.63;;
48014;SDS011;33780;51.034;7.120;2023-02-11T05:40:27;16.80;;;6.80;;
48014;SDS011;33780;51.034;7.120;2023-02-11T05:42:52;17.23;;;7.43;;
48014;SDS011;33780;51.034;7.120;2023-02-11T05:45:17;17.17;;;7.15;;
48014;SDS011;33780;51.034;7.120;2023-02-11T05:47:43;17.40;;;6.80;;
48014;SDS011;33780;51.034;7.120;2023-02-11T05:50:08;14.43;;;6.82;;
48014;SDS011;33780;51.034;7.120;2023-02-11T05:52:34;17.35;;;6.90;;
48014;SDS011;33780;51.034;7.120;2023-02-11T05:54:59;16.70;;;6.60;;
48014;SDS011;33780;51.034;7.120;2023-02-11T05:57:24;18.58;;;7.47;;
48014;SDS011;33780;51.034;7.120;2023-02-11T05:59:50;15.65;;;6.70;;
48014;SDS011;33780;51.034;7.120;2023-02-11T06:02:15;18.30;;;7.05;;
48014;SDS011;33780;51.034;7.120;2023-02-11T06:04:41;17.90;;;6.40;;
48014;SDS011;33780;51.034;7.120;2023-02-11T06:07:06;18.33;;;6.85;;
48014;SDS011;33780;51.034;7.120;2023-02-11T06:09:32;18.67;;;6.88;;
48014;SDS011;33780;51.034;7.120;2023-02-11T06:11:57;18.63;;;6.32;;
48014;SDS011;33780;51.034;7.120;2023-02-11T06:14:22;16.02;;;6.78;;
48014;SDS011;33780;51.034;7.120;2023-02-11T06:16:47;18.58;;;6.60;;
48014;SDS011;33780;51.034;7.120;2023-02-11T06:19:13;18.02;;;6.70;;
48014;SDS011;33780;51.034;7.120;2023-02-11T06:21:38;20.77;;;6.80;;
48014;SDS011;33780;51.034;7.120;2023-02-11T06:24:04;16.25;;;6.75;;
48014;SDS011;33780;51.034;7.120;2023-02-11T06:26:29;16.33;;;7.22;;
48014;SDS011;33780;51.034;7.120;2023-02-11T06:28:58;15.85;;;6.47;;
48014;SDS011;33780;51.034;7.120;2023-02-11T06:31:24;15.60;;;6.20;;
48014;SDS011;33780;51.034;7.120;2023-02-11T06:33:49;20.98;;;7.68;;
48014;SDS011;33780;51.034;7.120;2023-02-11T06:36:18;18.35;;;6.85;;
48014;SDS011;33780;51.034;7.120;2023-02-11T06:38:45;18.35;;;6.55;;
48014;SDS011;33780;51.034;7.120;2023-02-11T06:41:12;19.67;;;7.47;;
48014;SDS011;33780;51.034;7.120;2023-02-11T06:43:38;20.08;;;6.60;;
48014;SDS011;33780;51.034;7.120;2023-02-11T06:46:05;19.08;;;8.05;;
48014;SDS011;33780;51.034;7.120;2023-02-11T06:48:31;21.25;;;6.75;;
48014;SDS011;33780;51.034;7.120;2023-02-11T06:51:00;20.70;;;8.70;;
48014;SDS011;33780;51.034;7.120;2023-02-11T06:53:27;18.35;;;7.22;;
48014;SDS011;33780;51.034;7.120;2023-02-11T06:55:53;21.17;;;8.02;;
48014;SDS011;33780;51.034;7.120;2023-02-11T06:58:18;17.63;;;7.80;;
48014;SDS011;33780;51.034;7.120;2023-02-11T07:00:43;19.73;;;8.13;;
48014;SDS011;33780;51.034;7.120;2023-02-11T07:03:08;21.90;;;7.95;;
48014;SDS011;33780;51.034;7.120;2023-02-11T07:05:34;23.60;;;8.55;;
48014;SDS011;33780;51.034;7.120;2023-02-11T07:08:01;22.90;;;8.15;;
48014;SDS011;33780;51.034;7.120;2023-02-11T07:10:26;15.85;;;7.55;;
48014;SDS011;33780;51.034;7.120;2023-02-11T07:12:51;22.13;;;8.25;;
48014;SDS011;33780;51.034;7.120;2023-02-11T07:15:16;17.73;;;7.70;;
48014;SDS011;33780;51.034;7.120;2023-02-11T07:17:42;24.13;;;8.75;;
48014;SDS011;33780;51.034;7.120;2023-02-11T07:20:07;27.77;;;9.40;;
48014;SDS011;33780;51.034;7.120;2023-02-11T07:22:33;21.92;;;8.38;;
48014;SDS011;33780;51.034;7.120;2023-02-11T07:24:59;20.17;;;8.52;;
48014;SDS011;33780;51.034;7.120;2023-02-11T07:27:24;24.52;;;8.93;;
48014;SDS011;33780;51.034;7.120;2023-02-11T07:29:49;22.63;;;8.45;;
48014;SDS011;33780;51.034;7.120;2023-02-11T07:32:14;21.02;;;8.38;;
48014;SDS011;33780;51.034;7.120;2023-02-11T07:34:40;19.77;;;8.32;;
48014;SDS011;33780;51.034;7.120;2023-02-11T07:37:05;22.23;;;9.20;;
48014;SDS011;33780;51.034;7.120;2023-02-11T07:39:30;24.90;;;8.52;;
48014;SDS011;33780;51.034;7.120;2023-02-11T07:41:56;22.20;;;8.75;;
48014;SDS011;33780;51.034;7.120;2023-02-11T07:44:21;23.45;;;8.68;;
48014;SDS011;33780;51.034;7.120;2023-02-11T07:46:47;24.67;;;8.85;;
48014;SDS011;33780;51.034;7.120;2023-02-11T07:49:13;22.10;;;8.75;;
48014;SDS011;33780;51.034;7.120;2023-02-11T07:51:39;22.75;;;8.85;;
48014;SDS011;33780;51.034;7.120;2023-02-11T07:54:05;30.42;;;8.98;;
48014;SDS011;33780;51.034;7.120;2023-02-11T07:56:31;22.17;;;8.15;;
48014;SDS011;33780;51.034;7.120;2023-02-11T07:58:58;18.25;;;7.45;;
48014;SDS011;33780;51.034;7.120;2023-02-11T08:01:25;22.30;;;8.55;;
48014;SDS011;33780;51.034;7.120;2023-02-11T08:03:52;26.05;;;9.48;;
48014;SDS011;33780;51.034;7.120;2023-02-11T08:06:19;22.10;;;8.07;;
48014;SDS011;33780;51.034;7.120;2023-02-11T08:08:46;22.48;;;8.77;;
48014;SDS011;33780;51.034;7.120;2023-02-11T08:11:16;23.38;;;9.25;;
48014;SDS011;33780;51.034;7.120;2023-02-11T08:13:44;22.75;;;9.00;;
48014;SDS011;33780;51.034;7.120;2023-02-11T08:16:17;22.38;;;9.20;;
48014;SDS011;33780;51.034;7.120;2023-02-11T08:18:45;24.27;;;8.50;;
48014;SDS011;33780;51.034;7.120;2023-02-11T08:21:11;22.40;;;8.77;;
48014;SDS011;33780;51.034;7.120;2023-02-11T08:23:36;24.17;;;9.30;;
48014;SDS011;33780;51.034;7.120;2023-02-11T08:26:06;28.42;;;9.50;;
48014;SDS011;33780;51.034;7.120;2023-02-11T08:28:37;24.63;;;8.70;;
48014;SDS011;33780;51.034;7.120;2023-02-11T08:31:11;19.77;;;8.68;;
48014;SDS011;33780;51.034;7.120;2023-02-11T08:33:39;23.35;;;8.73;;
48014;SDS011;33780;51.034;7.120;2023-02-11T08:36:13;22.33;;;9.45;;
48014;SDS011;33780;51.034;7.120;2023-02-11T08:38:40;23.05;;;8.85;;
48014;SDS011;33780;51.034;7.120;2023-02-11T08:41:07;27.77;;;9.85;;
48014;SDS011;33780;51.034;7.120;2023-02-11T08:43:33;21.63;;;8.60;;
48014;SDS011;33780;51.034;7.120;2023-02-11T08:45:59;25.45;;;9.57;;
48014;SDS011;33780;51.034;7.120;2023-02-11T08:50:52;20.25;;;8.75;;
48014;SDS011;33780;51.034;7.120;2023-02-11T08:53:17;24.13;;;9.57;;
48014;SDS011;33780;51.034;7.120;2023-02-11T08:55:49;22.88;;;8.85;;
48014;SDS011;33780;51.034;7.120;2023-02-11T08:58:19;23.23;;;9.23;;
48014;SDS011;33780;51.034;7.120;2023-02-11T09:00:45;25.83;;;10.13;;
48014;SDS011;33780;51.034;7.120;2023-02-11T09:03:11;27.10;;;9.98;;
48014;SDS011;33780;51.034;7.120;2023-02-11T09:05:42;26.65;;;10.18;;
48014;SDS011;33780;51.034;7.120;2023-02-11T09:08:08;21.52;;;8.80;;
48014;SDS011;33780;51.034;7.120;2023-02-11T09:10:34;22.65;;;8.65;;
48014;SDS011;33780;51.034;7.120;2023-02-11T09:12:59;29.00;;;9.70;;
48014;SDS011;33780;51.034;7.120;2023-02-11T09:15:24;27.20;;;9.45;;
48014;SDS011;33780;51.034;7.120;2023-02-11T09:17:49;31.45;;;10.25;;
48014;SDS011;33780;51.034;7.120;2023-02-11T09:20:15;26.70;;;8.93;;
48014;SDS011;33780;51.034;7.120;2023-02-11T09:22:40;29.75;;;10.27;;
48014;SDS011;33780;51.034;7.120;2023-02-11T09:25:05;24.02;;;9.45;;
48014;SDS011;33780;51.034;7.120;2023-02-11T09:27:31;23.58;;;8.20;;
48014;SDS011;33780;51.034;7.120;2023-02-11T09:29:56;26.55;;;9.07;;
48014;SDS011;33780;51.034;7.120;2023-02-11T09:32:21;28.15;;;9.20;;
48014;SDS011;33780;51.034;7.120;2023-02-11T09:34:47;23.63;;;9.60;;
48014;SDS011;33780;51.034;7.120;2023-02-11T09:37:12;29.55;;;10.15;;
48014;SDS011;33780;51.034;7.120;2023-02-11T09:39:46;33.22;;;10.93;;
48014;SDS011;33780;51.034;7.120;2023-02-11T09:45:30;20.85;;;9.38;;
48014;SDS011;33780;51.034;7.120;2023-02-11T09:48:20;26.88;;;9.43;;
48014;SDS011;33780;51.034;7.120;2023-02-11T09:51:16;22.63;;;9.18;;
48014;SDS011;33780;51.034;7.120;2023-02-11T09:54:09;26.20;;;8.85;;
48014;SDS011;33780;51.034;7.120;2023-02-11T09:56:54;26.03;;;9.03;;
48014;SDS011;33780;51.034;7.120;2023-02-11T09:59:25;26.33;;;9.07;;
48014;SDS011;33780;51.034;7.120;2023-02-11T10:11:15;28.02;;;9.23;;
48014;SDS011;33780;51.034;7.120;2023-02-11T10:16:50;27.35;;;9.30;;
48014;SDS011;33780;51.034;7.120;2023-02-11T10:19:26;26.10;;;8.63;;
48014;SDS011;33780;51.034;7.120;2023-02-11T10:27:56;25.90;;;9.05;;
48014;SDS011;33780;51.034;7.120;2023-02-11T10:31:02;27.83;;;10.13;;
48014;SDS011;33780;51.034;7.120;2023-02-11T10:36:41;30.13;;;9.25;;
48014;SDS011;33780;51.034;7.120;2023-02-11T10:39:27;24.73;;;9.15;;
48014;SDS011;33780;51.034;7.120;2023-02-11T10:42:02;22.08;;;8.40;;
48014;SDS011;33780;51.034;7.120;2023-02-11T10:47:37;29.80;;;10.15;;
48014;SDS011;33780;51.034;7.120;2023-02-11T10:50:16;25.35;;;8.75;;
48014;SDS011;33780;51.034;7.120;2023-02-11T10:56:03;24.73;;;9.98;;
48014;SDS011;33780;51.034;7.120;2023-02-11T10:58:45;29.70;;;10.57;;
48014;SDS011;33780;51.034;7.120;2023-02-11T11:01:55;24.17;;;9.13;;
48014;SDS011;33780;51.034;7.120;2023-02-11T11:04:39;27.63;;;10.38;;
48014;SDS011;33780;51.034;7.120;2023-02-11T11:07:24;25.48;;;8.48;;
48014;SDS011;33780;51.034;7.120;2023-02-11T11:10:04;22.25;;;9.13;;
48014;SDS011;33780;51.034;7.120;2023-02-11T11:12:58;23.67;;;8.88;;
48014;SDS011;33780;51.034;7.120;2023-02-11T11:15:28;25.98;;;9.88;;
48014;SDS011;33780;51.034;7.120;2023-02-11T11:21:29;31.30;;;10.32;;
48014;SDS011;33780;51.034;7.120;2023-02-11T11:26:51;25.05;;;9.07;;
48014;SDS011;33780;51.034;7.120;2023-02-11T11:29:42;24.13;;;9.60;;
48014;SDS011;33780;51.034;7.120;2023-02-11T11:32:30;26.38;;;10.13;;
48014;SDS011;33780;51.034;7.120;2023-02-11T11:38:22;23.60;;;9.02;;
48014;SDS011;33780;51.034;7.120;2023-02-11T11:49:44;22.33;;;8.27;;
48014;SDS011;33780;51.034;7.120;2023-02-11T11:58:56;22.70;;;8.02;;
48014;SDS011;33780;51.034;7.120;2023-02-11T12:01:45;24.10;;;8.85;;
48014;SDS011;33780;51.034;7.120;2023-02-11T12:12:42;24.45;;;8.25;;
48014;SDS011;33780;51.034;7.120;2023-02-11T12:28:00;22.92;;;8.02;;
48014;SDS011;33780;51.034;7.120;2023-02-11T12:57:25;24.65;;;8.77;;
48014;SDS011;33780;51.034;7.120;2023-02-11T13:06:10;24.38;;;8.10;;
48014;SDS011;33780;51.034;7.120;2023-02-11T13:08:40;25.35;;;8.68;;
48014;SDS011;33780;51.034;7.120;2023-02-11T13:11:32;27.40;;;8.80;;
48014;SDS011;33780;51.034;7.120;2023-02-11T13:16:53;23.63;;;8.57;;
48014;SDS011;33780;51.034;7.120;2023-02-11T13:19:29;25.73;;;9.23;;
48014;SDS011;33780;51.034;7.120;2023-02-11T13:24:46;24.60;;;9.15;;
48014;SDS011;33780;51.034;7.120;2023-02-11T13:30:25;21.48;;;8.32;;
48014;SDS011;33780;51.034;7.120;2023-02-11T13:35:36;29.17;;;9.50;;
48014;SDS011;33780;51.034;7.120;2023-02-11T13:40:40;24.45;;;8.68;;
48014;SDS011;33780;51.034;7.120;2023-02-11T13:43:35;22.70;;;8.73;;
48014;SDS011;33780;51.034;7.120;2023-02-11T13:47:13;22.05;;;7.97;;
48014;SDS011;33780;51.034;7.120;2023-02-11T13:52:47;27.30;;;8.82;;
48014;SDS011;33780;51.034;7.120;2023-02-11T13:58:33;22.92;;;9.27;;
48014;SDS011;33780;51.034;7.120;2023-02-11T14:01:11;26.50;;;9.68;;
48014;SDS011;33780;51.034;7.120;2023-02-11T14:07:30;22.92;;;8.85;;
48014;SDS011;33780;51.034;7.120;2023-02-11T14:20:31;22.63;;;9.48;;
48014;SDS011;33780;51.034;7.120;2023-02-11T14:23:21;22.63;;;8.48;;
48014;SDS011;33780;51.034;7.120;2023-02-11T14:26:05;21.80;;;9.18;;
48014;SDS011;33780;51.034;7.120;2023-02-11T14:29:02;24.92;;;9.00;;
48014;SDS011;33780;51.034;7.120;2023-02-11T14:35:04;26.33;;;9.45;;
48014;SDS011;33780;51.034;7.120;2023-02-11T14:41:00;24.63;;;10.15;;
48014;SDS011;33780;51.034;7.120;2023-02-11T14:43:42;19.67;;;8.57;;
48014;SDS011;33780;51.034;7.120;2023-02-11T14:46:23;20.65;;;8.82;;
48014;SDS011;33780;51.034;7.120;2023-02-11T14:48:52;25.45;;;9.40;;
48014;SDS011;33780;51.034;7.120;2023-02-11T14:51:37;26.60;;;9.18;;
48014;SDS011;33780;51.034;7.120;2023-02-11T14:54:29;23.77;;;9.10;;
48014;SDS011;33780;51.034;7.120;2023-02-11T14:59:58;25.92;;;9.13;;
48014;SDS011;33780;51.034;7.120;2023-02-11T15:02:51;29.55;;;9.70;;
48014;SDS011;33780;51.034;7.120;2023-02-11T15:08:03;26.88;;;9.35;;
48014;SDS011;33780;51.034;7.120;2023-02-11T15:10:45;20.80;;;9.15;;
48014;SDS011;33780;51.034;7.120;2023-02-11T15:13:15;26.33;;;9.55;;
48014;SDS011;33780;51.034;7.120;2023-02-11T15:16:06;24.60;;;8.63;;
48014;SDS011;33780;51.034;7.120;2023-02-11T15:18:39;28.42;;;9.75;;
48014;SDS011;33780;51.034;7.120;2023-02-11T15:21:20;27.27;;;8.88;;
48014;SDS011;33780;51.034;7.120;2023-02-11T15:24:21;23.75;;;9.15;;
48014;SDS011;33780;51.034;7.120;2023-02-11T15:27:03;25.67;;;9.48;;
48014;SDS011;33780;51.034;7.120;2023-02-11T15:29:44;19.77;;;8.70;;
48014;SDS011;33780;51.034;7.120;2023-02-11T15:34:42;22.83;;;9.07;;
48014;SDS011;33780;51.034;7.120;2023-02-11T15:40:07;26.05;;;9.65;;
48014;SDS011;33780;51.034;7.120;2023-02-11T15:42:57;26.50;;;10.00;;
48014;SDS011;33780;51.034;7.120;2023-02-11T15:45:40;26.60;;;9.63;;
48014;SDS011;33780;51.034;7.120;2023-02-11T15:48:35;27.20;;;9.30;;
48014;SDS011;33780;51.034;7.120;2023-02-11T15:51:21;26.27;;;9.77;;
48014;SDS011;33780;51.034;7.120;2023-02-11T15:56:55;24.45;;;9.30;;
48014;SDS011;33780;51.034;7.120;2023-02-11T16:05:23;30.88;;;10.82;;
48014;SDS011;33780;51.034;7.120;2023-02-11T16:07:54;26.38;;;9.90;;
48014;SDS011;33780;51.034;7.120;2023-02-11T16:10:24;29.65;;;9.98;;
48014;SDS011;33780;51.034;7.120;2023-02-11T16:20:49;32.13;;;9.85;;
48014;SDS011;33780;51.034;7.120;2023-02-11T16:23:28;28.77;;;10.05;;
48014;SDS011;33780;51.034;7.120;2023-02-11T16:26:04;33.25;;;9.88;;
48014;SDS011;33780;51.034;7.120;2023-02-11T16:28:35;30.83;;;10.25;;
48014;SDS011;33780;51.034;7.120;2023-02-11T16:31:03;31.85;;;11.27;;
48014;SDS011;33780;51.034;7.120;2023-02-11T16:33:33;25.75;;;9.65;;
48014;SDS011;33780;51.034;7.120;2023-02-11T16:35:58;26.42;;;9.50;;
48014;SDS011;33780;51.034;7.120;2023-02-11T16:38:26;30.20;;;10.73;;
48014;SDS011;33780;51.034;7.120;2023-02-11T16:40:51;26.30;;;9.45;;
48014;SDS011;33780;51.034;7.120;2023-02-11T16:43:17;29.65;;;10.88;;
48014;SDS011;33780;51.034;7.120;2023-02-11T16:45:46;27.67;;;9.75;;
48014;SDS011;33780;51.034;7.120;2023-02-11T16:48:14;29.20;;;9.63;;
48014;SDS011;33780;51.034;7.120;2023-02-11T16:50:43;26.20;;;9.60;;
48014;SDS011;33780;51.034;7.120;2023-02-11T16:53:10;23.67;;;9.45;;
48014;SDS011;33780;51.034;7.120;2023-02-11T16:55:36;31.33;;;9.13;;
48014;SDS011;33780;51.034;7.120;2023-02-11T16:58:04;25.40;;;9.77;;
48014;SDS011;33780;51.034;7.120;2023-02-11T17:00:30;29.58;;;10.10;;
48014;SDS011;33780;51.034;7.120;2023-02-11T17:02:55;26.38;;;9.38;;
48014;SDS011;33780;51.034;7.120;2023-02-11T17:05:27;28.73;;;10.43;;
48014;SDS011;33780;51.034;7.120;2023-02-11T17:07:52;29.70;;;10.85;;
48014;SDS011;33780;51.034;7.120;2023-02-11T17:10:19;25.63;;;10.50;;
48014;SDS011;33780;51.034;7.120;2023-02-11T17:12:46;34.47;;;10.85;;
48014;SDS011;33780;51.034;7.120;2023-02-11T17:15:13;33.40;;;11.30;;
48014;SDS011;33780;51.034;7.120;2023-02-11T17:17:38;27.75;;;10.55;;
48014;SDS011;33780;51.034;7.120;2023-02-11T17:20:04;28.58;;;9.75;;
48014;SDS011;33780;51.034;7.120;2023-02-11T17:22:30;29.92;;;10.98;;
48014;SDS011;33780;51.034;7.120;2023-02-11T17:24:56;26.15;;;9.77;;
48014;SDS011;33780;51.034;7.120;2023-02-11T17:27:22;24.90;;;10.35;;
48014;SDS011;33780;51.034;7.120;2023-02-11T17:29:48;31.08;;;10.55;;
48014;SDS011;33780;51.034;7.120;2023-02-11T17:32:13;28.25;;;11.02;;
48014;SDS011;33780;51.034;7.120;2023-02-11T17:34:38;27.08;;;10.02;;
48014;SDS011;33780;51.034;7.120;2023-02-11T17:37:04;24.73;;;9.98;;
48014;SDS011;33780;51.034;7.120;2023-02-11T17:39:33;29.55;;;11.18;;
48014;SDS011;33780;51.034;7.120;2023-02-11T17:41:59;23.75;;;10.10;;
48014;SDS011;33780;51.034;7.120;2023-02-11T17:44:25;23.80;;;10.45;;
48014;SDS011;33780;51.034;7.120;2023-02-11T17:46:51;24.73;;;9.70;;
48014;SDS011;33780;51.034;7.120;2023-02-11T17:49:16;30.10;;;11.18;;
48014;SDS011;33780;51.034;7.120;2023-02-11T17:51:41;24.80;;;10.32;;
48014;SDS011;33780;51.034;7.120;2023-02-11T17:54:08;24.42;;;9.90;;
48014;SDS011;33780;51.034;7.120;2023-02-11T17:56:39;27.43;;;9.27;;
48014;SDS011;33780;51.034;7.120;2023-02-11T17:59:05;26.75;;;9.95;;
48014;SDS011;33780;51.034;7.120;2023-02-11T18:01:32;26.27;;;9.77;;
48014;SDS011;33780;51.034;7.120;2023-02-11T18:03:58;26.65;;;9.13;;
48014;SDS011;33780;51.034;7.120;2023-02-11T18:06:24;24.92;;;9.35;;
48014;SDS011;33780;51.034;7.120;2023-02-11T18:08:49;24.98;;;9.63;;
48014;SDS011;33780;51.034;7.120;2023-02-11T18:11:15;21.77;;;8.70;;
48014;SDS011;33780;51.034;7.120;2023-02-11T18:13:41;30.23;;;9.68;;
48014;SDS011;33780;51.034;7.120;2023-02-11T18:16:07;24.15;;;8.80;;
48014;SDS011;33780;51.034;7.120;2023-02-11T18:18:33;21.92;;;8.90;;
48014;SDS011;33780;51.034;7.120;2023-02-11T18:20:59;22.35;;;8.38;;
48014;SDS011;33780;51.034;7.120;2023-02-11T18:23:26;21.88;;;8.35;;
48014;SDS011;33780;51.034;7.120;2023-02-11T18:25:52;25.05;;;8.95;;
48014;SDS011;33780;51.034;7.120;2023-02-11T18:28:17;22.30;;;9.25;;
48014;SDS011;33780;51.034;7.120;2023-02-11T18:30:42;23.52;;;8.93;;
48014;SDS011;33780;51.034;7.120;2023-02-11T18:33:08;23.70;;;9.43;;
48014;SDS011;33780;51.034;7.120;2023-02-11T18:35:40;22.10;;;9.23;;
48014;SDS011;33780;51.034;7.120;2023-02-11T18:38:06;23.83;;;8.57;;
48014;SDS011;33780;51.034;7.120;2023-02-11T18:40:32;28.38;;;9.82;;
48014;SDS011;33780;51.034;7.120;2023-02-11T18:42:57;22.63;;;10.20;;
48014;SDS011;33780;51.034;7.120;2023-02-11T18:45:22;28.17;;;10.27;;
48014;SDS011;33780;51.034;7.120;2023-02-11T18:47:48;28.30;;;10.13;;
48014;SDS011;33780;51.034;7.120;2023-02-11T18:50:14;27.85;;;10.73;;
48014;SDS011;33780;51.034;7.120;2023-02-11T18:52:40;27.10;;;9.80;;
48014;SDS011;33780;51.034;7.120;2023-02-11T18:55:06;28.77;;;10.45;;
48014;SDS011;33780;51.034;7.120;2023-02-11T18:57:32;28.73;;;9.98;;
48014;SDS011;33780;51.034;7.120;2023-02-11T18:59:57;27.45;;;9.32;;
48014;SDS011;33780;51.034;7.120;2023-02-11T19:02:22;21.55;;;8.93;;
48014;SDS011;33780;51.034;7.120;2023-02-11T19:04:48;18.98;;;8.00;;
48014;SDS011;33780;51.034;7.120;2023-02-11T19:07:14;23.20;;;8.70;;
48014;SDS011;33780;51.034;7.120;2023-02-11T19:09:39;21.83;;;8.50;;
48014;SDS011;33780;51.034;7.120;2023-02-11T19:12:05;22.67;;;8.20;;